ZKEAN NZWN-NZWB
Flight info
| Callsign | ZKEAN |
|---|---|
| Flight time | 0h 22m |
| Altitude | 4000 |
| Route | NZWN / NZWB |
| Aircraft | DA42/L-SBDGRY/S |
Departure
| Time | 2026-04-25 08:08 |
|---|---|
| Airport | Wellington International Airport (NZWN) |
Arrival
| Time | 2026-04-25 08:31 |
|---|---|
| Airport | Woodbourne Airport (NZWB) |
| Time | Latitude | Longitude | Altitude | Speed | Heading |
|---|---|---|---|---|---|
| 2026-04-25 07:56 | -41.32753 | 174.80505 | 17 ft | 0 kts | 1° |
| 2026-04-25 07:59 | -41.32744 | 174.80515 | 17 ft | 4 kts | 47° |
| 2026-04-25 07:59 | -41.32723 | 174.80541 | 16 ft | 6 kts | 47° |
| 2026-04-25 07:59 | -41.32676 | 174.80560 | 16 ft | 0 kts | 77° |
| 2026-04-25 08:00 | -41.32677 | 174.80588 | 16 ft | 3 kts | 91° |
| 2026-04-25 08:00 | -41.32677 | 174.80590 | 16 ft | 0 kts | 90° |
| 2026-04-25 08:05 | -41.32678 | 174.80602 | 15 ft | 5 kts | 91° |
| 2026-04-25 08:05 | -41.32676 | 174.80681 | 13 ft | 12 kts | 46° |
| 2026-04-25 08:06 | -41.32658 | 174.80693 | 14 ft | 0 kts | 353° |
| 2026-04-25 08:06 | -41.32657 | 174.80693 | 14 ft | 1 kts | 352° |
| 2026-04-25 08:07 | -41.32655 | 174.80692 | 14 ft | 0 kts | 350° |
| 2026-04-25 08:07 | -41.32650 | 174.80692 | 14 ft | 8 kts | 358° |
| 2026-04-25 08:07 | -41.32478 | 174.80703 | 16 ft | 39 kts | 2° |
| 2026-04-25 08:07 | -41.32137 | 174.80725 | 22 ft | 58 kts | 1° |
| 2026-04-25 08:08 | -41.31646 | 174.80732 | 169 ft | 77 kts | 4° |
| 2026-04-25 08:08 | -41.31076 | 174.80822 | 455 ft | 88 kts | 8° |
| 2026-04-25 08:08 | -41.30421 | 174.80898 | 719 ft | 99 kts | 3° |
| 2026-04-25 08:08 | -41.29716 | 174.80948 | 1008 ft | 103 kts | 2° |
| 2026-04-25 08:09 | -41.28984 | 174.81007 | 1335 ft | 107 kts | 2° |
| 2026-04-25 08:09 | -41.28203 | 174.81048 | 1485 ft | 123 kts | 350° |
| 2026-04-25 08:09 | -41.27466 | 174.80382 | 1499 ft | 140 kts | 304° |
| 2026-04-25 08:09 | -41.27256 | 174.79075 | 1512 ft | 151 kts | 275° |
| 2026-04-25 08:10 | -41.27445 | 174.77667 | 1490 ft | 163 kts | 246° |
| 2026-04-25 08:10 | -41.28308 | 174.76670 | 1499 ft | 172 kts | 203° |
| 2026-04-25 08:10 | -41.29497 | 174.76428 | 1497 ft | 173 kts | 184° |
| 2026-04-25 08:10 | -41.30699 | 174.76400 | 1497 ft | 172 kts | 182° |
| 2026-04-25 08:11 | -41.31909 | 174.76373 | 1496 ft | 176 kts | 182° |
| 2026-04-25 08:11 | -41.33137 | 174.76344 | 1505 ft | 176 kts | 183° |
| 2026-04-25 08:11 | -41.34357 | 174.76297 | 1503 ft | 175 kts | 183° |
| 2026-04-25 08:11 | -41.35547 | 174.76068 | 1489 ft | 171 kts | 205° |
| 2026-04-25 08:12 | -41.36390 | 174.75041 | 1488 ft | 164 kts | 246° |
| 2026-04-25 08:12 | -41.36638 | 174.73593 | 1506 ft | 161 kts | 266° |
| 2026-04-25 08:12 | -41.36745 | 174.72104 | 1503 ft | 162 kts | 268° |
| 2026-04-25 08:12 | -41.36851 | 174.70599 | 1494 ft | 164 kts | 269° |
| 2026-04-25 08:13 | -41.36976 | 174.69099 | 1508 ft | 163 kts | 268° |
| 2026-04-25 08:13 | -41.37098 | 174.67602 | 1506 ft | 163 kts | 266° |
| 2026-04-25 08:13 | -41.37207 | 174.66102 | 1512 ft | 163 kts | 268° |
| 2026-04-25 08:14 | -41.37436 | 174.63094 | 1499 ft | 163 kts | 268° |
| 2026-04-25 08:14 | -41.37562 | 174.61622 | 1493 ft | 161 kts | 267° |
| 2026-04-25 08:14 | -41.37681 | 174.60144 | 1492 ft | 160 kts | 267° |
| 2026-04-25 08:14 | -41.37785 | 174.58716 | 1704 ft | 148 kts | 267° |
| 2026-04-25 08:15 | -41.37864 | 174.57389 | 1983 ft | 140 kts | 268° |
| 2026-04-25 08:15 | -41.37924 | 174.56122 | 2255 ft | 135 kts | 267° |
| 2026-04-25 08:15 | -41.37965 | 174.54884 | 2532 ft | 132 kts | 268° |
| 2026-04-25 08:15 | -41.37999 | 174.53665 | 2804 ft | 131 kts | 263° |
| 2026-04-25 08:16 | -41.38085 | 174.52458 | 3080 ft | 131 kts | 262° |
| 2026-04-25 08:16 | -41.38158 | 174.51249 | 3358 ft | 131 kts | 262° |
| 2026-04-25 08:16 | -41.38222 | 174.50033 | 3632 ft | 132 kts | 263° |
| 2026-04-25 08:16 | -41.38293 | 174.48808 | 3902 ft | 133 kts | 263° |
| 2026-04-25 08:17 | -41.38354 | 174.47572 | 4177 ft | 134 kts | 262° |
| 2026-04-25 08:17 | -41.38747 | 174.46514 | 4434 ft | 127 kts | 215° |
| 2026-04-25 08:17 | -41.39546 | 174.45918 | 4495 ft | 139 kts | 204° |
| 2026-04-25 08:17 | -41.40455 | 174.45344 | 4501 ft | 149 kts | 203° |
| 2026-04-25 08:18 | -41.41396 | 174.44756 | 4500 ft | 154 kts | 203° |
| 2026-04-25 08:18 | -41.42374 | 174.44147 | 4500 ft | 157 kts | 204° |
| 2026-04-25 08:18 | -41.43149 | 174.43113 | 4502 ft | 164 kts | 238° |
| 2026-04-25 08:18 | -41.43733 | 174.41825 | 4497 ft | 162 kts | 230° |
| 2026-04-25 08:19 | -41.44388 | 174.40608 | 4498 ft | 161 kts | 230° |
| 2026-04-25 08:19 | -41.45045 | 174.39400 | 4498 ft | 161 kts | 230° |
| 2026-04-25 08:19 | -41.45704 | 174.38191 | 4499 ft | 161 kts | 230° |
| 2026-04-25 08:19 | -41.46363 | 174.36982 | 4499 ft | 161 kts | 230° |
| 2026-04-25 08:20 | -41.46908 | 174.35665 | 4484 ft | 168 kts | 251° |
| 2026-04-25 08:20 | -41.47017 | 174.34108 | 4495 ft | 169 kts | 262° |
| 2026-04-25 08:20 | -41.47059 | 174.32537 | 4495 ft | 170 kts | 263° |
| 2026-04-25 08:20 | -41.47101 | 174.30963 | 4492 ft | 170 kts | 263° |
| 2026-04-25 08:21 | -41.47139 | 174.29382 | 4494 ft | 170 kts | 263° |
| 2026-04-25 08:21 | -41.47196 | 174.27802 | 4488 ft | 171 kts | 263° |
| 2026-04-25 08:21 | -41.47275 | 174.26210 | 4487 ft | 172 kts | 263° |
| 2026-04-25 08:21 | -41.47353 | 174.24615 | 4488 ft | 173 kts | 263° |
| 2026-04-25 08:22 | -41.47433 | 174.23038 | 4488 ft | 173 kts | 263° |
| 2026-04-25 08:22 | -41.47513 | 174.21439 | 4489 ft | 173 kts | 263° |
| 2026-04-25 08:22 | -41.47593 | 174.19836 | 4489 ft | 173 kts | 263° |
| 2026-04-25 08:22 | -41.47815 | 174.18255 | 4312 ft | 176 kts | 251° |
| 2026-04-25 08:23 | -41.48161 | 174.16677 | 4063 ft | 179 kts | 250° |
| 2026-04-25 08:23 | -41.48521 | 174.15088 | 3813 ft | 179 kts | 250° |
| 2026-04-25 08:23 | -41.48891 | 174.13523 | 3563 ft | 175 kts | 246° |
| 2026-04-25 08:23 | -41.49356 | 174.12039 | 3311 ft | 172 kts | 243° |
| 2026-04-25 08:24 | -41.49844 | 174.10580 | 3038 ft | 172 kts | 243° |
| 2026-04-25 08:24 | -41.50343 | 174.09130 | 2765 ft | 171 kts | 243° |
| 2026-04-25 08:24 | -41.50847 | 174.07685 | 2485 ft | 171 kts | 243° |
| 2026-04-25 08:24 | -41.51280 | 174.06214 | 2196 ft | 171 kts | 257° |
| 2026-04-25 08:25 | -41.51440 | 174.04671 | 1924 ft | 169 kts | 263° |
| 2026-04-25 08:25 | -41.51582 | 174.03117 | 1641 ft | 168 kts | 263° |
| 2026-04-25 08:25 | -41.51731 | 174.01584 | 1363 ft | 166 kts | 263° |
| 2026-04-25 08:25 | -41.51889 | 174.00058 | 1079 ft | 165 kts | 263° |
| 2026-04-25 08:26 | -41.52057 | 173.98583 | 997 ft | 154 kts | 262° |
| 2026-04-25 08:26 | -41.52214 | 173.97192 | 997 ft | 149 kts | 262° |
| 2026-04-25 08:26 | -41.52367 | 173.95839 | 994 ft | 147 kts | 263° |
| 2026-04-25 08:26 | -41.52520 | 173.94489 | 995 ft | 148 kts | 263° |
| 2026-04-25 08:27 | -41.52672 | 173.93113 | 993 ft | 151 kts | 263° |
| 2026-04-25 08:27 | -41.52833 | 173.91723 | 996 ft | 152 kts | 263° |
| 2026-04-25 08:27 | -41.52991 | 173.90329 | 993 ft | 153 kts | 262° |
| 2026-04-25 08:27 | -41.53125 | 173.88959 | 983 ft | 145 kts | 263° |
| 2026-04-25 08:28 | -41.53251 | 173.87643 | 982 ft | 141 kts | 263° |
| 2026-04-25 08:28 | -41.53333 | 173.86793 | 982 ft | 139 kts | 263° |
| 2026-04-25 08:28 | -41.53495 | 173.85102 | 984 ft | 136 kts | 263° |
| 2026-04-25 08:28 | -41.53615 | 173.83865 | 982 ft | 124 kts | 266° |
| 2026-04-25 08:29 | -41.53514 | 173.83130 | 959 ft | 127 kts | 302° |
| 2026-04-25 08:29 | -41.52757 | 173.82548 | 887 ft | 131 kts | 351° |
| 2026-04-25 08:29 | -41.52151 | 173.82747 | 744 ft | 93 kts | 40° |
| 2026-04-25 08:29 | -41.51928 | 173.83508 | 613 ft | 93 kts | 87° |
| 2026-04-25 08:30 | -41.51912 | 173.84665 | 462 ft | 91 kts | 83° |
| 2026-04-25 08:30 | -41.51874 | 173.85188 | 334 ft | 82 kts | 84° |
| 2026-04-25 08:30 | -41.51836 | 173.85942 | 196 ft | 82 kts | 86° |
| 2026-04-25 08:30 | -41.51799 | 173.86661 | 133 ft | 70 kts | 84° |
| 2026-04-25 08:31 | -41.51777 | 173.87033 | 131 ft | 8 kts | 99° |
| 2026-04-25 08:31 | -41.51788 | 173.86967 | 130 ft | 13 kts | 266° |
| 2026-04-25 08:31 | -41.51780 | 173.86845 | 130 ft | 12 kts | 328° |
| 2026-04-25 08:31 | -41.51717 | 173.86835 | 129 ft | 0 kts | 355° |
| 2026-04-25 08:32 | -41.51710 | 173.86833 | 129 ft | 5 kts | 353° |
| 2026-04-25 08:32 | -41.51634 | 173.86825 | 127 ft | 14 kts | 355° |